Wednesday, May 25, 2016
11:05 UTC
  |  Log In   |  Register Free
Airport Search:

Indiana County/Jimmy Stewart Fld/ Airport
(KIDI)

Indiana County/Jimmy Stewart Fld/ Airport Diagram
No Airport Diagram Available

FAA data valid effective Mar 31 2016 - May 26 2016 (unless otherwise noted).

 
 
 
 
 
 
 
 
 
 
 
 
 
 
Current Aviation Weather for KIDI

Weather Summary


The most recent METAR observation for IDI was updated at: 12:55 UTC
METAR for KIDI is not available. Closest METAR is for KJST
KIDI  (most recent observation was updatred at 25:10 UTC)
251055Z AUTO 00000KT 10SM CLR 12/11 A3021 RMK A01

KJST  (22.7 nm NW)   (most recent observation was updated at 25:10 UTC)
251054Z AUTO 23006KT 10SM CLR 14/07 A3020 RMK AO2 SLP216 T01440072

KLBE  (25.5 nm NE)   (most recent observation was updated at 25:10 UTC)
251050Z 24005KT 8SM SKC 12/12 A3018

TAF for KIDI is not available.
KJST  (22.7 nm NW)   (most recent observation was updatred at 25:09 UTC)
AMD 250936Z 2510/2606 25005KT P6SM SKC FM251300 26008KT P6SM FEW050


KLBE  (25.5 nm NE)   (most recent observation was updatred at 25:05 UTC)
250520Z 2506/2606 23004KT P6SM SKC FM260500 19005KT P6SM BKN100


KDUJ  (34.1 nm SW)   (most recent observation was updatred at 25:05 UTC)
250520Z 2506/2606 23004KT P6SM SKC FM260500 19006KT P6SM BKN100
GlobalAir.com is loading additional information.
 Current Weather at IDI
50.0 F° (10.0 C°)

North winds at 0.0 mph
Pressure:
30.19 in
Humidity:
94%
Wind:
North at 0.0 mph
Dew Point:
48.2 F° (9.0 C°)
Visibility:
9.00 mi
IDI NOAA Radar




Find All Airport Services Find A Hotel Find A Rental Car Find A Golf Course Find A Restaurant $100 Hamburger



Airport Weather Forecast for KIDI

Translated METAR for KIDI (1055 UTC)
METAR:
KIDI 251055Z AUTO 00000KT 10SM CLR 12/11 A3021 RMK A01
Conditions at:
KIDI (Indiana County/Jimmy Stewart Fld/, PA) observed 1055 UTC 25 May 2016
Temperature:
12°C (53.6°F)
Dewpoint:
11°C (51.8°F) [RH = 93.6]
Pressure:
30.21 inches Hg (1023 mb)
Winds:
from the N (000 degrees) at 0 mph (0 knots: 0 m/s)
Visibility:
10 mile(s)
Ceiling:
at least 12,000 feet AGL
Clouds:
Clear below 12,000 feet AGL
Remarks:
site is un-manned

Translated TAF for KJST (John Murtha Johnstown-Cambria Co, PA) (0936 UTC)
TAF text:
KJST 250936Z 2510/2606 25005KT P6SM SKC
Forecast period:
Wednesday May 25 2016 10:00 UTC - Thursday May 26 2016 06:00 UTC
Forecast type:
FROM: standard forecast or significant change
Winds:
from the WSW (250 degrees) at 5.8 mph (5 knots: 2.6 m/s)
Visibility:
6 or more mile(s) (9.7+ km)
Ceiling:
at least 12,000 feet AGL
Clouds:
Clear Skies
Weather:
no significant weather observed at this time
TAF text:
FM251300 26008KT P6SM FEW050
Forecast period:
Wednesday May 25 2016 13:00 UTC - Thursday May 26 2016 06:00 UTC
Forecast type:
FROM: standard forecast or significant change
Winds:
from the W (260 degrees) at 9.2 mph (8 knots: 4.1 m/s)
Visibility:
6 or more mile(s) (9.7+ km)
Ceiling:
at least 12,000 feet AGL
Clouds:
Few Clouds at 5,000 feet AGL
Weather:
no significant weather observed at this time
FBO's on the Field
FBO Company Facility Photos Services Transportation Aviation Fuel Prices: Prices include tax
Catering Weather Repair Courtesy Rental Type 100LL JetA JetA+ MOGAS 8087
 
Indiana County Jimmy Stewart Airport

Currently rated 5 by 1 person
FS:Phillips 66
Last Updated: Apr-27
Login to update fuel prices
SS:
Contact Indiana County Jimmy Stewart AirportMore FBO Information
 
Add another FBO Facility Photos Catering Weather Repair Courtesy Rental Type 100LL JetA JetA+ MOGAS 8087
Services Transportation Aviation Fuel Prices: Prices include tax


model-print
model-print
model-print
model-print